Time;durP1;ratioP1;P1;durP2;ratioP2;P2;SDS_P1;SDS_P2;PMS_P1;PMS_P2;Temp;Humidity;BMP_temperature;BMP_pressure;BME280_temperature;BME280_humidity;BME280_pressure;Samples;Min_cycle;Max_cycle;Signal;HPM_P1;HPM_P2
2022/01/06 00:02:03;;;;;;;1.13;0.80;;;;;;;;;;5036634;28;20765;-38
2022/01/06 00:04:29;;;;;;;1.23;1.13;;;;;;;;;;5043896;28;21236;-39
2022/01/06 00:06:55;;;;;;;0.87;0.80;;;;;;;;;;5039098;28;21057;-39
2022/01/06 00:09:24;;;;;;;3.03;1.10;;;;;;;;;;5054156;28;20483;-39
2022/01/06 00:11:50;;;;;;;1.23;0.83;;;;;;;;;;5037040;28;20820;-41
2022/01/06 00:17:35;;;;;;;1.87;0.90;;;;;;;;;;5015289;28;21361;-40
2022/01/06 00:25:33;;;;;;;1.90;0.83;;;;;;;;;;5048732;28;20638;-39
2022/01/06 00:27:59;;;;;;;1.87;0.83;;;;;;;;;;5036002;28;20421;-39
2022/01/06 00:30:25;;;;;;;1.50;0.87;;;;;;;;;;5037895;28;20425;-40
2022/01/06 00:32:51;;;;;;;0.80;0.70;;;;;;;;;;5034936;28;20770;-39
2022/01/06 00:35:18;;;;;;;2.33;0.80;;;;;;;;;;5053407;28;20429;-40
2022/01/06 00:37:44;;;;;;;1.27;0.80;;;;;;;;;;5036005;28;20571;-41
2022/01/06 00:40:10;;;;;;;0.70;0.70;;;;;;;;;;5053360;28;20432;-39
2022/01/06 00:42:37;;;;;;;0.60;0.60;;;;;;;;;;5039145;28;20524;-40
2022/01/06 00:45:03;;;;;;;1.07;0.90;;;;;;;;;;5033709;28;20605;-39
2022/01/06 00:47:29;;;;;;;1.30;1.00;;;;;;;;;;5035811;28;20992;-42
2022/01/06 00:49:55;;;;;;;0.80;0.80;;;;;;;;;;5052619;28;20429;-40
2022/01/06 00:52:22;;;;;;;0.80;0.80;;;;;;;;;;5040773;28;20413;-39
2022/01/06 00:54:48;;;;;;;0.80;0.80;;;;;;;;;;5037639;28;20410;-41
2022/01/06 00:57:14;;;;;;;0.80;0.80;;;;;;;;;;5035162;28;20543;-38
2022/01/06 00:59:40;;;;;;;0.83;0.83;;;;;;;;;;5044292;28;20463;-38
2022/01/06 01:02:06;;;;;;;1.10;1.00;;;;;;;;;;5056522;28;21018;-39
2022/01/06 01:04:32;;;;;;;2.30;0.90;;;;;;;;;;5033886;28;20722;-39
2022/01/06 01:06:59;;;;;;;1.37;1.20;;;;;;;;;;5051851;28;20860;-39
2022/01/06 01:09:25;;;;;;;1.90;1.00;;;;;;;;;;5036501;28;20425;-38
2022/01/06 01:11:51;;;;;;;0.80;0.80;;;;;;;;;;5037917;28;20428;-39
2022/01/06 01:14:19;;;;;;;2.70;0.87;;;;;;;;;;5035643;28;20426;-39
2022/01/06 01:17:01;;;;;;;0.97;0.97;;;;;;;;;;5036808;28;20925;-39
2022/01/06 01:19:28;;;;;;;1.10;0.93;;;;;;;;;;5037043;28;20535;-40
2022/01/06 01:21:54;;;;;;;1.27;1.10;;;;;;;;;;5041566;28;20872;-39
2022/01/06 01:24:21;;;;;;;1.10;1.00;;;;;;;;;;5036981;28;20862;-39
2022/01/06 01:26:47;;;;;;;1.20;1.10;;;;;;;;;;5037043;28;20532;-39
2022/01/06 01:29:16;;;;;;;1.40;1.30;;;;;;;;;;5036230;28;20421;-39
2022/01/06 01:32:01;;;;;;;1.47;1.37;;;;;;;;;;5054230;28;20433;-38
2022/01/06 01:34:29;;;;;;;1.77;1.30;;;;;;;;;;5034662;28;21066;-39
2022/01/06 01:36:56;;;;;;;1.50;1.33;;;;;;;;;;5040354;28;20731;-38
2022/01/06 01:39:23;;;;;;;1.90;1.73;;;;;;;;;;5051758;28;20465;-40
2022/01/06 01:41:50;;;;;;;2.03;1.90;;;;;;;;;;5053004;28;20444;-39
2022/01/06 01:44:19;;;;;;;2.27;2.07;;;;;;;;;;5039803;28;20754;-39
2022/01/06 01:46:57;;;;;;;3.50;2.10;;;;;;;;;;5038983;28;20917;-39
2022/01/06 01:51:50;;;;;;;2.43;2.10;;;;;;;;;;5048831;28;21092;-39
2022/01/06 01:54:19;;;;;;;2.60;2.00;;;;;;;;;;5037083;28;20435;-39
2022/01/06 01:56:46;;;;;;;2.40;2.20;;;;;;;;;;5034101;28;20506;-38
2022/01/06 01:59:15;;;;;;;2.07;1.97;;;;;;;;;;5048607;28;20970;-39
2022/01/06 02:01:44;;;;;;;2.50;2.30;;;;;;;;;;5051387;28;20413;-39
2022/01/06 02:04:13;;;;;;;1.70;1.60;;;;;;;;;;5041062;28;20520;-40
2022/01/06 02:06:39;;;;;;;1.57;1.47;;;;;;;;;;5051719;28;20792;-41
2022/01/06 02:09:05;;;;;;;1.53;1.43;;;;;;;;;;5033625;28;20425;-41
2022/01/06 02:11:31;;;;;;;1.60;1.50;;;;;;;;;;5034448;28;20424;-38
2022/01/06 02:13:59;;;;;;;3.07;2.27;;;;;;;;;;5032837;28;20432;-40
2022/01/06 02:16:26;;;;;;;2.20;2.10;;;;;;;;;;5036905;28;20751;-39
2022/01/06 02:18:53;;;;;;;3.00;2.80;;;;;;;;;;5040452;28;20479;-39
2022/01/06 02:21:22;;;;;;;2.83;2.60;;;;;;;;;;5036742;28;21070;-38
2022/01/06 02:23:48;;;;;;;2.83;2.63;;;;;;;;;;5037983;28;20673;-38
2022/01/06 02:26:17;;;;;;;2.70;2.50;;;;;;;;;;5049749;28;20429;-38
2022/01/06 02:28:43;;;;;;;2.20;2.10;;;;;;;;;;5035723;28;20911;-38
2022/01/06 02:31:09;;;;;;;3.73;2.43;;;;;;;;;;5043028;28;20436;-38
2022/01/06 02:33:39;;;;;;;1.90;1.80;;;;;;;;;;5035465;28;20781;-39
2022/01/06 02:36:05;;;;;;;2.23;2.00;;;;;;;;;;5053881;28;20434;-38
2022/01/06 02:38:34;;;;;;;1.70;1.60;;;;;;;;;;5056284;28;20569;-39
2022/01/06 02:41:01;;;;;;;1.67;1.57;;;;;;;;;;5055269;28;20897;-38
2022/01/06 02:43:29;;;;;;;1.83;1.40;;;;;;;;;;5038735;28;20432;-39
2022/01/06 02:45:57;;;;;;;1.33;1.20;;;;;;;;;;5051878;28;21326;-39
2022/01/06 02:48:26;;;;;;;1.17;1.10;;;;;;;;;;5040444;28;20479;-38
2022/01/06 02:50:52;;;;;;;1.30;1.20;;;;;;;;;;5040429;28;20437;-38
2022/01/06 02:53:20;;;;;;;1.20;1.10;;;;;;;;;;5040682;28;20433;-38
2022/01/06 02:55:50;;;;;;;1.10;1.10;;;;;;;;;;5050203;28;20430;-38
2022/01/06 02:58:17;;;;;;;1.43;1.23;;;;;;;;;;5056151;28;20460;-37
2022/01/06 03:00:43;;;;;;;1.87;1.20;;;;;;;;;;5055502;28;20493;-38
2022/01/06 03:03:10;;;;;;;1.30;1.20;;;;;;;;;;5041597;28;20451;-38
2022/01/06 03:05:36;;;;;;;1.53;1.40;;;;;;;;;;5035143;28;20433;-38
2022/01/06 03:08:02;;;;;;;1.40;1.30;;;;;;;;;;5052402;28;20433;-39
2022/01/06 03:10:35;;;;;;;2.50;1.30;;;;;;;;;;5042390;28;20433;-38
2022/01/06 03:13:01;;;;;;;1.60;1.30;;;;;;;;;;5051857;28;21259;-38
2022/01/06 03:15:27;;;;;;;1.77;1.20;;;;;;;;;;5033046;28;20812;-39
2022/01/06 03:17:56;;;;;;;1.30;1.20;;;;;;;;;;5039197;28;20499;-38
2022/01/06 03:20:23;;;;;;;1.40;1.30;;;;;;;;;;5040311;28;20427;-40
2022/01/06 03:22:53;;;;;;;1.50;1.40;;;;;;;;;;5053658;28;20937;-38
2022/01/06 03:25:19;;;;;;;1.50;1.40;;;;;;;;;;5050697;28;20434;-39
2022/01/06 03:27:45;;;;;;;1.90;1.80;;;;;;;;;;5039125;28;20417;-39
2022/01/06 03:30:13;;;;;;;1.57;1.47;;;;;;;;;;5037912;28;21087;-39
2022/01/06 03:32:42;;;;;;;2.07;1.90;;;;;;;;;;5038902;28;20432;-39
2022/01/06 03:35:09;;;;;;;1.93;1.77;;;;;;;;;;5039017;28;21331;-39
2022/01/06 03:37:36;;;;;;;1.93;1.83;;;;;;;;;;5048709;28;20425;-39
2022/01/06 03:40:05;;;;;;;2.97;1.90;;;;;;;;;;5038846;28;21293;-40
2022/01/06 03:42:32;;;;;;;1.80;1.70;;;;;;;;;;5052793;28;20561;-40
2022/01/06 03:44:58;;;;;;;1.83;1.73;;;;;;;;;;5038914;28;20973;-39
2022/01/06 03:47:25;;;;;;;1.90;1.80;;;;;;;;;;5036793;28;20843;-39
2022/01/06 03:49:51;;;;;;;1.47;1.37;;;;;;;;;;5034416;28;20516;-39
2022/01/06 03:52:17;;;;;;;1.70;1.60;;;;;;;;;;5053278;28;20432;-39
2022/01/06 03:54:43;;;;;;;1.50;1.40;;;;;;;;;;5034598;28;20803;-39
2022/01/06 03:57:11;;;;;;;1.47;1.37;;;;;;;;;;5037405;28;20432;-39
2022/01/06 03:59:40;;;;;;;2.77;1.50;;;;;;;;;;5035329;28;20499;-39
2022/01/06 04:02:06;;;;;;;1.20;1.20;;;;;;;;;;5054296;28;20440;-38
2022/01/06 04:04:32;;;;;;;1.50;1.40;;;;;;;;;;5052568;28;20421;-40
2022/01/06 04:06:58;;;;;;;1.63;1.53;;;;;;;;;;5038305;28;21032;-39
2022/01/06 04:09:24;;;;;;;1.87;1.77;;;;;;;;;;5040448;28;20502;-39
2022/01/06 04:11:51;;;;;;;1.87;1.60;;;;;;;;;;5043429;28;20444;-38
2022/01/06 04:14:17;;;;;;;2.40;2.20;;;;;;;;;;5032774;28;20440;-39
2022/01/06 04:16:43;;;;;;;2.63;2.43;;;;;;;;;;5034709;28;20811;-39
2022/01/06 04:19:10;;;;;;;3.03;2.60;;;;;;;;;;5037276;28;20929;-39
2022/01/06 04:21:36;;;;;;;3.27;2.60;;;;;;;;;;5051816;28;20461;-39
2022/01/06 04:24:03;;;;;;;3.67;2.30;;;;;;;;;;5049037;28;20509;-38
2022/01/06 04:26:29;;;;;;;2.43;2.20;;;;;;;;;;5033564;28;20429;-38
2022/01/06 04:28:55;;;;;;;2.40;2.20;;;;;;;;;;5052939;28;20428;-38
2022/01/06 04:31:22;;;;;;;2.40;2.20;;;;;;;;;;5034871;28;20751;-39
2022/01/06 04:33:48;;;;;;;2.87;2.57;;;;;;;;;;5034868;28;21214;-39
2022/01/06 04:36:14;;;;;;;3.07;2.77;;;;;;;;;;5039381;28;20421;-38
2022/01/06 04:38:40;;;;;;;2.37;2.17;;;;;;;;;;5034376;28;20809;-39
2022/01/06 04:41:07;;;;;;;2.87;2.50;;;;;;;;;;5038742;28;20870;-39
2022/01/06 04:43:33;;;;;;;2.80;2.23;;;;;;;;;;5032216;28;21011;-39
2022/01/06 04:46:00;;;;;;;2.83;2.63;;;;;;;;;;5025548;28;20460;-38
2022/01/06 04:48:29;;;;;;;3.20;2.80;;;;;;;;;;5034215;28;20429;-39
2022/01/06 04:50:57;;;;;;;3.90;2.73;;;;;;;;;;5038498;28;20849;-39
2022/01/06 04:53:23;;;;;;;2.90;2.60;;;;;;;;;;5052038;28;20520;-39
2022/01/06 04:55:51;;;;;;;3.43;2.63;;;;;;;;;;5049589;28;20418;-39
2022/01/06 04:58:18;;;;;;;3.50;3.10;;;;;;;;;;5052334;28;20531;-38
2022/01/06 05:00:44;;;;;;;3.90;2.87;;;;;;;;;;5038223;28;20432;-38
2022/01/06 05:03:10;;;;;;;2.77;2.50;;;;;;;;;;5037865;28;20453;-38
2022/01/06 05:05:36;;;;;;;2.40;2.20;;;;;;;;;;5048949;28;20742;-38
2022/01/06 05:08:02;;;;;;;1.73;1.40;;;;;;;;;;5048856;28;20466;-39
2022/01/06 05:10:28;;;;;;;1.50;1.40;;;;;;;;;;5032101;28;21142;-39
2022/01/06 05:12:54;;;;;;;1.60;1.47;;;;;;;;;;5038168;28;20452;-38
2022/01/06 05:15:20;;;;;;;1.70;1.60;;;;;;;;;;5039801;28;20438;-39
2022/01/06 05:17:49;;;;;;;1.60;1.50;;;;;;;;;;5047971;28;20920;-39
2022/01/06 05:20:15;;;;;;;1.60;1.50;;;;;;;;;;5032514;28;20409;-39
2022/01/06 05:22:44;;;;;;;1.33;1.23;;;;;;;;;;5039156;28;20451;-40
2022/01/06 05:25:11;;;;;;;1.07;1.07;;;;;;;;;;5037782;28;20976;-39
2022/01/06 05:27:38;;;;;;;1.73;1.47;;;;;;;;;;5035118;28;20860;-40
2022/01/06 05:30:05;;;;;;;1.30;1.20;;;;;;;;;;5035667;28;20424;-39
2022/01/06 05:32:31;;;;;;;1.20;1.20;;;;;;;;;;5052575;28;20840;-40
2022/01/06 05:34:57;;;;;;;1.40;1.30;;;;;;;;;;5040923;28;20436;-39
2022/01/06 05:37:23;;;;;;;1.53;1.33;;;;;;;;;;5036336;28;20433;-40
2022/01/06 05:39:49;;;;;;;1.30;1.20;;;;;;;;;;5035500;28;20457;-39
2022/01/06 05:42:15;;;;;;;1.57;1.20;;;;;;;;;;5034883;28;21045;-39
2022/01/06 05:44:42;;;;;;;1.30;1.20;;;;;;;;;;5037871;28;20425;-40
2022/01/06 05:47:11;;;;;;;1.03;1.00;;;;;;;;;;5039447;28;20421;-40
2022/01/06 05:49:37;;;;;;;1.53;1.30;;;;;;;;;;5035293;28;20644;-40
2022/01/06 05:52:03;;;;;;;2.10;1.10;;;;;;;;;;5037326;28;20840;-42
2022/01/06 05:54:30;;;;;;;1.77;1.10;;;;;;;;;;5033468;28;20449;-40
2022/01/06 05:56:56;;;;;;;1.00;0.90;;;;;;;;;;5058959;28;20578;-41
2022/01/06 05:59:25;;;;;;;1.03;1.00;;;;;;;;;;5038148;28;20574;-40
2022/01/06 06:01:51;;;;;;;0.93;0.90;;;;;;;;;;5042222;28;21276;-40
2022/01/06 06:04:17;;;;;;;1.00;1.00;;;;;;;;;;5053707;28;21056;-40
2022/01/06 06:06:43;;;;;;;0.80;0.80;;;;;;;;;;5033035;28;20808;-40
2022/01/06 06:09:09;;;;;;;0.90;0.90;;;;;;;;;;5036947;28;20451;-40
2022/01/06 06:11:35;;;;;;;1.40;1.10;;;;;;;;;;5044305;28;20792;-39
2022/01/06 06:14:01;;;;;;;1.10;1.00;;;;;;;;;;5036936;28;20429;-40
2022/01/06 06:16:28;;;;;;;0.80;0.80;;;;;;;;;;5038094;28;20653;-41
2022/01/06 06:18:54;;;;;;;1.20;1.10;;;;;;;;;;5038572;28;20453;-40
2022/01/06 06:21:22;;;;;;;1.40;1.30;;;;;;;;;;5032076;28;20417;-39
2022/01/06 06:23:49;;;;;;;1.47;1.37;;;;;;;;;;5038737;28;20413;-40
2022/01/06 06:26:16;;;;;;;0.83;0.83;;;;;;;;;;5040713;28;20766;-40
2022/01/06 06:28:42;;;;;;;1.10;1.00;;;;;;;;;;5036209;28;20463;-41
2022/01/06 06:31:08;;;;;;;0.87;0.87;;;;;;;;;;5034339;28;20995;-40
2022/01/06 06:33:34;;;;;;;0.80;0.80;;;;;;;;;;5031988;28;20430;-39
2022/01/06 06:36:00;;;;;;;0.80;0.80;;;;;;;;;;5053288;28;20430;-40
2022/01/06 06:38:29;;;;;;;0.80;0.80;;;;;;;;;;5040260;28;20456;-40
2022/01/06 06:40:55;;;;;;;0.83;0.70;;;;;;;;;;5038191;28;20441;-40
2022/01/06 06:43:21;;;;;;;0.73;0.73;;;;;;;;;;5031226;28;20436;-39
2022/01/06 06:45:47;;;;;;;0.73;0.73;;;;;;;;;;5050400;28;20452;-40
2022/01/06 06:48:13;;;;;;;0.70;0.70;;;;;;;;;;5038998;28;20457;-39
2022/01/06 06:50:39;;;;;;;0.63;0.63;;;;;;;;;;5033381;28;20865;-40
2022/01/06 06:53:07;;;;;;;0.70;0.70;;;;;;;;;;5027652;28;20428;-41
2022/01/06 06:55:34;;;;;;;0.77;0.77;;;;;;;;;;5038353;28;20436;-40
2022/01/06 06:58:01;;;;;;;0.70;0.70;;;;;;;;;;5041561;28;20793;-40
2022/01/06 07:00:27;;;;;;;0.80;0.70;;;;;;;;;;5029295;28;20844;-40
2022/01/06 07:02:54;;;;;;;0.60;0.60;;;;;;;;;;5047661;28;20466;-42
2022/01/06 07:05:20;;;;;;;0.70;0.70;;;;;;;;;;5047069;28;20429;-41
2022/01/06 07:07:47;;;;;;;0.67;0.67;;;;;;;;;;5035139;28;20805;-41
2022/01/06 07:10:14;;;;;;;0.60;0.60;;;;;;;;;;5047480;28;20439;-40
2022/01/06 07:12:41;;;;;;;1.20;0.90;;;;;;;;;;5031830;28;20424;-40
2022/01/06 07:15:08;;;;;;;0.77;0.70;;;;;;;;;;5033709;28;20530;-40
2022/01/06 07:17:37;;;;;;;1.00;0.90;;;;;;;;;;5036858;28;20784;-40
2022/01/06 07:20:06;;;;;;;0.97;0.90;;;;;;;;;;5038847;28;20456;-40
2022/01/06 07:22:32;;;;;;;0.80;0.80;;;;;;;;;;5042202;28;20760;-40
2022/01/06 07:25:01;;;;;;;0.93;0.80;;;;;;;;;;5036857;28;20930;-41
2022/01/06 07:27:27;;;;;;;1.10;1.00;;;;;;;;;;5036765;28;20558;-40
2022/01/06 07:29:53;;;;;;;1.10;0.87;;;;;;;;;;5052299;28;20436;-39
2022/01/06 07:32:19;;;;;;;1.17;1.03;;;;;;;;;;5037632;28;20497;-51
2022/01/06 07:34:45;;;;;;;2.57;0.90;;;;;;;;;;5038465;28;20488;-40
2022/01/06 07:37:12;;;;;;;2.30;1.07;;;;;;;;;;5037558;28;20434;-40
2022/01/06 07:39:40;;;;;;;2.93;1.20;;;;;;;;;;5037607;28;20458;-41
2022/01/06 07:42:06;;;;;;;2.50;1.20;;;;;;;;;;5034934;28;20478;-40
2022/01/06 07:44:33;;;;;;;1.50;1.40;;;;;;;;;;5052083;28;20785;-40
2022/01/06 07:46:59;;;;;;;2.67;1.10;;;;;;;;;;5038921;28;20839;-40
2022/01/06 07:49:26;;;;;;;1.30;1.10;;;;;;;;;;5035772;28;20428;-40
2022/01/06 07:51:54;;;;;;;2.53;1.00;;;;;;;;;;5031458;28;20542;-40
2022/01/06 07:54:20;;;;;;;1.50;1.30;;;;;;;;;;5039594;28;20564;-40
2022/01/06 07:56:46;;;;;;;1.37;1.23;;;;;;;;;;5036764;28;20425;-40
2022/01/06 07:59:12;;;;;;;1.93;1.10;;;;;;;;;;5050899;28;21190;-40
2022/01/06 08:01:38;;;;;;;2.07;1.63;;;;;;;;;;5049226;28;21009;-40
2022/01/06 08:04:04;;;;;;;1.50;1.40;;;;;;;;;;5050552;28;20440;-41
2022/01/06 08:06:31;;;;;;;1.90;1.50;;;;;;;;;;5034551;28;20436;-40
2022/01/06 08:08:57;;;;;;;1.50;1.40;;;;;;;;;;5050927;28;20959;-40
2022/01/06 08:11:23;;;;;;;1.30;1.20;;;;;;;;;;5035597;28;21080;-40
2022/01/06 08:13:50;;;;;;;1.30;1.20;;;;;;;;;;5034308;28;20547;-41
2022/01/06 08:16:16;;;;;;;2.57;1.67;;;;;;;;;;5034043;28;20437;-40
2022/01/06 08:18:42;;;;;;;2.10;1.53;;;;;;;;;;5052899;28;20456;-40
2022/01/06 08:21:13;;;;;;;2.47;1.70;;;;;;;;;;5051559;28;20431;-41
2022/01/06 08:23:39;;;;;;;2.10;1.33;;;;;;;;;;5055452;28;20441;-42
2022/01/06 08:26:08;;;;;;;1.70;1.60;;;;;;;;;;5059471;28;20422;-40
2022/01/06 08:28:34;;;;;;;2.13;1.43;;;;;;;;;;5049698;28;20905;-41
2022/01/06 08:31:00;;;;;;;3.37;2.37;;;;;;;;;;5049023;28;20932;-42
2022/01/06 08:33:26;;;;;;;2.93;2.17;;;;;;;;;;5049059;28;20769;-40
2022/01/06 08:35:53;;;;;;;3.30;1.90;;;;;;;;;;5037892;28;20936;-40
2022/01/06 08:38:19;;;;;;;3.37;2.43;;;;;;;;;;5052025;28;20467;-40
2022/01/06 08:40:46;;;;;;;5.13;2.97;;;;;;;;;;5033920;28;21208;-41
2022/01/06 08:43:14;;;;;;;2.83;2.50;;;;;;;;;;5046254;28;20585;-40
2022/01/06 08:45:43;;;;;;;3.43;2.53;;;;;;;;;;5034792;28;20761;-40
2022/01/06 08:48:11;;;;;;;3.70;2.93;;;;;;;;;;5037093;28;20526;-41
2022/01/06 08:50:37;;;;;;;4.87;2.20;;;;;;;;;;5055825;28;21071;-40
2022/01/06 08:53:03;;;;;;;4.47;2.63;;;;;;;;;;5036268;28;20835;-40
2022/01/06 08:55:32;;;;;;;4.57;2.87;;;;;;;;;;5037329;28;20483;-40
2022/01/06 08:57:58;;;;;;;3.10;2.60;;;;;;;;;;5050284;28;20426;-41
2022/01/06 09:00:25;;;;;;;4.73;3.30;;;;;;;;;;5037721;28;20965;-41
2022/01/06 09:02:54;;;;;;;5.57;3.60;;;;;;;;;;5037091;28;20422;-40
2022/01/06 09:05:22;;;;;;;4.47;3.50;;;;;;;;;;5035857;28;20842;-42
2022/01/06 09:07:49;;;;;;;4.20;3.80;;;;;;;;;;5045540;28;20998;-40
2022/01/06 09:10:18;;;;;;;7.37;4.20;;;;;;;;;;5050453;28;20427;-41
2022/01/06 09:12:45;;;;;;;4.87;3.20;;;;;;;;;;5053010;28;20919;-40
2022/01/06 09:15:14;;;;;;;2.63;2.33;;;;;;;;;;5034374;28;20698;-40
2022/01/06 09:17:40;;;;;;;3.00;2.30;;;;;;;;;;5032300;28;20421;-40
2022/01/06 09:20:08;;;;;;;3.97;2.97;;;;;;;;;;5031444;28;21106;-40
2022/01/06 09:22:36;;;;;;;3.10;2.50;;;;;;;;;;5039846;28;20540;-41
2022/01/06 09:25:05;;;;;;;3.47;2.67;;;;;;;;;;5039439;28;20543;-41
2022/01/06 09:27:32;;;;;;;3.63;2.53;;;;;;;;;;5042478;28;21110;-41
2022/01/06 09:29:58;;;;;;;4.87;2.80;;;;;;;;;;5028651;28;20620;-40
2022/01/06 09:32:25;;;;;;;3.17;2.77;;;;;;;;;;5029982;28;20626;-41
2022/01/06 09:34:51;;;;;;;3.20;2.20;;;;;;;;;;5035404;28;20568;-40
2022/01/06 09:37:19;;;;;;;3.57;2.50;;;;;;;;;;5034232;28;20422;-39
2022/01/06 09:39:50;;;;;;;3.70;2.60;;;;;;;;;;5035321;28;20452;-40
2022/01/06 09:42:17;;;;;;;3.13;2.40;;;;;;;;;;5033261;28;20454;-40
2022/01/06 09:44:43;;;;;;;3.27;2.43;;;;;;;;;;5049571;28;20557;-43
2022/01/06 09:47:10;;;;;;;2.67;2.20;;;;;;;;;;5041228;28;20433;-39
2022/01/06 09:49:42;;;;;;;2.30;1.77;;;;;;;;;;5034320;28;20424;-40
2022/01/06 09:52:08;;;;;;;3.20;2.37;;;;;;;;;;5037969;28;20428;-40
2022/01/06 09:54:35;;;;;;;3.30;1.90;;;;;;;;;;5047699;28;20460;-39
2022/01/06 09:57:01;;;;;;;2.53;1.93;;;;;;;;;;5030781;28;20732;-40
2022/01/06 09:59:28;;;;;;;2.50;1.80;;;;;;;;;;5035349;28;20956;-39
2022/01/06 10:01:56;;;;;;;2.37;1.93;;;;;;;;;;5051109;28;20429;-39
2022/01/06 10:04:30;;;;;;;2.23;1.50;;;;;;;;;;5040831;28;20848;-39
2022/01/06 10:07:04;;;;;;;2.30;2.10;;;;;;;;;;5032853;28;21197;-39
2022/01/06 10:09:34;;;;;;;3.40;2.30;;;;;;;;;;5039100;28;20486;-40
2022/01/06 10:12:04;;;;;;;2.10;1.80;;;;;;;;;;5050490;28;20463;-39
2022/01/06 10:14:41;;;;;;;3.43;2.40;;;;;;;;;;5034989;28;20959;-39
2022/01/06 10:17:13;;;;;;;3.63;2.73;;;;;;;;;;5031282;28;20836;-39
2022/01/06 10:19:40;;;;;;;3.43;2.60;;;;;;;;;;5048525;28;20942;-39
2022/01/06 10:22:12;;;;;;;3.67;2.40;;;;;;;;;;5037961;28;20425;-39
2022/01/06 10:24:38;;;;;;;2.50;2.03;;;;;;;;;;5035145;28;20467;-38
2022/01/06 10:27:06;;;;;;;2.30;2.10;;;;;;;;;;5029436;28;20432;-39
2022/01/06 10:29:37;;;;;;;2.47;2.27;;;;;;;;;;5046327;28;20551;-40
2022/01/06 10:32:10;;;;;;;2.77;2.07;;;;;;;;;;5037765;28;20429;-39
2022/01/06 10:34:39;;;;;;;1.90;1.80;;;;;;;;;;5047875;28;20431;-39
2022/01/06 10:37:16;;;;;;;3.53;1.80;;;;;;;;;;5029764;28;20426;-39
2022/01/06 10:39:43;;;;;;;2.57;1.80;;;;;;;;;;5034506;28;20979;-39
2022/01/06 10:42:11;;;;;;;2.30;2.10;;;;;;;;;;5045763;28;20421;-39
2022/01/06 10:44:48;;;;;;;2.03;1.60;;;;;;;;;;5031466;28;20993;-39
2022/01/06 10:47:14;;;;;;;2.07;1.87;;;;;;;;;;5050580;28;20470;-39
2022/01/06 10:49:40;;;;;;;3.73;2.20;;;;;;;;;;5037013;28;20532;-39
2022/01/06 10:52:06;;;;;;;2.70;1.63;;;;;;;;;;5030410;28;20520;-39
2022/01/06 10:54:37;;;;;;;1.43;1.33;;;;;;;;;;5042856;28;20424;-39
2022/01/06 10:57:07;;;;;;;2.97;1.80;;;;;;;;;;5039288;28;20424;-38
2022/01/06 10:59:34;;;;;;;3.03;2.20;;;;;;;;;;5036964;28;20951;-39
2022/01/06 11:02:01;;;;;;;3.80;2.03;;;;;;;;;;5033614;28;21825;-39
2022/01/06 11:04:28;;;;;;;2.13;1.80;;;;;;;;;;5040887;28;21287;-38
2022/01/06 11:06:54;;;;;;;3.50;1.60;;;;;;;;;;5034571;28;20421;-39
2022/01/06 11:09:21;;;;;;;1.60;1.50;;;;;;;;;;5031140;28;20420;-39
2022/01/06 11:14:26;;;;;;;1.60;1.50;;;;;;;;;;5053516;28;20421;-37
2022/01/06 11:16:52;;;;;;;1.60;1.50;;;;;;;;;;5054909;28;20412;-38
2022/01/06 11:19:18;;;;;;;1.50;1.40;;;;;;;;;;5050767;28;20707;-37
2022/01/06 11:21:48;;;;;;;2.77;1.77;;;;;;;;;;5041592;28;20812;-37
2022/01/06 11:24:17;;;;;;;1.97;1.53;;;;;;;;;;5033876;28;22808;-37
2022/01/06 11:26:55;;;;;;;1.47;1.20;;;;;;;;;;5034463;28;20421;-37
2022/01/06 11:29:26;;;;;;;1.60;1.30;;;;;;;;;;5034567;28;20428;-38
2022/01/06 11:31:52;;;;;;;1.73;1.37;;;;;;;;;;5038270;28;20429;-37
2022/01/06 11:34:20;;;;;;;1.90;1.17;;;;;;;;;;5045050;28;20507;-37
2022/01/06 11:36:50;;;;;;;2.80;1.70;;;;;;;;;;5050260;28;20855;-37
2022/01/06 11:39:27;;;;;;;1.53;1.40;;;;;;;;;;5031285;28;20657;-37
2022/01/06 11:41:54;;;;;;;1.27;1.10;;;;;;;;;;5031654;28;20583;-37
2022/01/06 11:44:21;;;;;;;1.80;1.43;;;;;;;;;;5047364;28;20558;-38
2022/01/06 11:46:52;;;;;;;2.03;1.20;;;;;;;;;;5050033;28;20433;-38
2022/01/06 11:49:35;;;;;;;2.40;1.83;;;;;;;;;;5029831;28;21107;-36
2022/01/06 11:52:08;;;;;;;1.90;1.50;;;;;;;;;;5032313;28;21324;-37
2022/01/06 11:54:34;;;;;;;1.60;1.50;;;;;;;;;;5033039;28;20536;-36
2022/01/06 11:57:00;;;;;;;1.43;1.10;;;;;;;;;;5032063;28;20425;-36
2022/01/06 11:59:34;;;;;;;1.63;0.97;;;;;;;;;;5033354;28;20451;-36
2022/01/06 12:02:01;;;;;;;1.20;1.00;;;;;;;;;;5034326;28;20429;-39
2022/01/06 12:04:27;;;;;;;1.17;1.00;;;;;;;;;;5032379;28;20498;-36
2022/01/06 12:07:07;;;;;;;1.93;1.10;;;;;;;;;;5053633;28;20456;-37
2022/01/06 12:09:33;;;;;;;1.50;0.90;;;;;;;;;;5041310;28;20448;-36
2022/01/06 12:12:07;;;;;;;1.80;1.20;;;;;;;;;;5035895;28;20924;-36
2022/01/06 12:14:33;;;;;;;1.07;0.97;;;;;;;;;;5052348;28;20492;-37
2022/01/06 12:17:10;;;;;;;2.17;1.30;;;;;;;;;;5036675;28;20978;-36
2022/01/06 12:19:36;;;;;;;1.00;0.90;;;;;;;;;;5038214;28;20479;-37
2022/01/06 12:22:10;;;;;;;1.80;1.20;;;;;;;;;;5027048;28;20417;-36
2022/01/06 12:24:36;;;;;;;1.60;1.10;;;;;;;;;;5049493;28;21116;-37
2022/01/06 12:27:03;;;;;;;1.40;1.30;;;;;;;;;;5049047;28;20450;-36
2022/01/06 12:29:33;;;;;;;2.43;1.30;;;;;;;;;;5029976;28;20929;-36
2022/01/06 12:32:06;;;;;;;2.97;1.30;;;;;;;;;;5045837;28;20428;-37
2022/01/06 12:34:32;;;;;;;2.13;1.60;;;;;;;;;;5029926;28;20433;-36
2022/01/06 12:36:58;;;;;;;1.80;1.40;;;;;;;;;;5034230;28;20428;-37
2022/01/06 12:39:24;;;;;;;1.50;1.40;;;;;;;;;;5032594;28;20449;-37
2022/01/06 12:41:51;;;;;;;2.77;1.40;;;;;;;;;;5030877;28;20508;-36
2022/01/06 12:44:22;;;;;;;2.57;1.30;;;;;;;;;;5033334;28;20887;-37
2022/01/06 12:46:48;;;;;;;1.60;1.50;;;;;;;;;;5030772;28;20624;-37
2022/01/06 12:49:14;;;;;;;1.80;1.70;;;;;;;;;;5034310;28;20847;-37
2022/01/06 12:51:44;;;;;;;2.30;1.40;;;;;;;;;;5033351;28;20996;-37
2022/01/06 12:54:17;;;;;;;1.67;1.23;;;;;;;;;;5035646;28;20832;-37
2022/01/06 12:56:49;;;;;;;2.40;1.40;;;;;;;;;;5031285;28;20425;-37
2022/01/06 12:59:21;;;;;;;3.93;2.10;;;;;;;;;;5030374;28;20592;-37
2022/01/06 13:01:52;;;;;;;3.47;1.80;;;;;;;;;;5042624;28;20405;-37
2022/01/06 13:04:22;;;;;;;1.80;1.60;;;;;;;;;;5102246;28;20511;-37
2022/01/06 13:06:48;;;;;;;1.53;1.43;;;;;;;;;;5088670;28;20430;-37
2022/01/06 13:09:14;;;;;;;2.73;1.70;;;;;;;;;;5036069;28;20742;-38
2022/01/06 13:11:48;;;;;;;2.97;1.70;;;;;;;;;;5031605;28;21365;-38
2022/01/06 13:14:24;;;;;;;2.47;1.70;;;;;;;;;;5046526;28;20482;-37
2022/01/06 13:16:53;;;;;;;2.33;1.50;;;;;;;;;;5050729;28;20765;-37
2022/01/06 13:19:19;;;;;;;1.50;1.40;;;;;;;;;;5031075;28;20527;-37
2022/01/06 13:21:56;;;;;;;1.97;1.70;;;;;;;;;;5048810;28;20425;-37
2022/01/06 13:24:33;;;;;;;2.93;1.60;;;;;;;;;;5049246;28;20853;-37
2022/01/06 13:27:01;;;;;;;2.93;1.80;;;;;;;;;;5033496;28;20822;-37
2022/01/06 13:29:50;;;;;;;3.30;1.80;;;;;;;;;;5028823;28;20436;-36
2022/01/06 13:32:21;;;;;;;2.37;1.60;;;;;;;;;;5034564;28;20988;-38
2022/01/06 13:34:48;;;;;;;2.60;2.00;;;;;;;;;;5034470;28;20552;-37
2022/01/06 13:37:18;;;;;;;1.70;1.60;;;;;;;;;;5032992;28;20432;-38
2022/01/06 13:39:46;;;;;;;2.17;1.87;;;;;;;;;;5044502;28;20806;-37
2022/01/06 13:42:24;;;;;;;2.57;1.60;;;;;;;;;;5022301;28;20921;-37
2022/01/06 13:44:52;;;;;;;1.73;1.63;;;;;;;;;;5048078;28;20866;-37
2022/01/06 13:47:28;;;;;;;1.70;1.60;;;;;;;;;;5032607;28;20452;-37
2022/01/06 13:52:46;;;;;;;1.90;1.60;;;;;;;;;;5043857;28;20425;-37
2022/01/06 13:55:16;;;;;;;3.17;1.40;;;;;;;;;;5043271;28;21212;-37
2022/01/06 13:57:45;;;;;;;2.63;1.80;;;;;;;;;;5047386;28;20625;-35
2022/01/06 14:00:11;;;;;;;3.53;2.13;;;;;;;;;;5025231;28;20942;-37
2022/01/06 14:02:39;;;;;;;1.87;1.60;;;;;;;;;;5028116;28;20591;-35
2022/01/06 14:05:11;;;;;;;2.10;1.90;;;;;;;;;;5029271;28;21047;-36
2022/01/06 14:07:38;;;;;;;3.20;2.13;;;;;;;;;;5031059;28;20452;-36
2022/01/06 14:10:05;;;;;;;3.23;1.90;;;;;;;;;;5048379;28;20429;-36
2022/01/06 14:12:34;;;;;;;1.80;1.70;;;;;;;;;;5050243;28;21127;-36
2022/01/06 14:15:01;;;;;;;2.57;2.00;;;;;;;;;;5032803;28;20452;-38
2022/01/06 14:17:29;;;;;;;3.97;2.23;;;;;;;;;;5028894;28;20846;-37
2022/01/06 14:19:55;;;;;;;3.00;2.00;;;;;;;;;;5035083;28;20461;-37
2022/01/06 14:22:26;;;;;;;2.60;1.60;;;;;;;;;;5031330;28;20406;-37
2022/01/06 14:24:54;;;;;;;2.97;1.90;;;;;;;;;;5029044;28;20882;-37
2022/01/06 14:27:21;;;;;;;3.70;2.30;;;;;;;;;;5031408;28;20851;-37
2022/01/06 14:29:49;;;;;;;3.10;2.27;;;;;;;;;;5034556;28;20541;-37
2022/01/06 14:32:15;;;;;;;6.43;3.23;;;;;;;;;;5029755;28;20439;-37
2022/01/06 14:34:42;;;;;;;2.33;2.10;;;;;;;;;;5034437;28;20430;-37
2022/01/06 14:37:09;;;;;;;3.10;2.23;;;;;;;;;;5034259;28;20763;-37
2022/01/06 14:39:35;;;;;;;3.30;2.37;;;;;;;;;;5032215;28;20456;-37
2022/01/06 14:42:04;;;;;;;3.40;2.40;;;;;;;;;;5031330;28;20494;-37
2022/01/06 14:44:30;;;;;;;2.57;2.20;;;;;;;;;;5046963;28;20436;-38
2022/01/06 14:46:58;;;;;;;3.90;2.60;;;;;;;;;;5049569;28;20483;-38
2022/01/06 14:49:25;;;;;;;4.60;2.90;;;;;;;;;;5053017;28;20738;-37
2022/01/06 14:51:55;;;;;;;4.77;3.57;;;;;;;;;;5031199;28;20433;-38
2022/01/06 14:54:22;;;;;;;6.43;3.00;;;;;;;;;;5024972;28;20425;-37
2022/01/06 14:56:49;;;;;;;6.50;3.97;;;;;;;;;;5028497;28;20525;-37
2022/01/06 14:59:15;;;;;;;7.13;4.07;;;;;;;;;;5036188;28;20461;-37
2022/01/06 15:01:41;;;;;;;4.87;3.43;;;;;;;;;;5037061;28;20991;-37
2022/01/06 15:04:07;;;;;;;5.33;3.43;;;;;;;;;;5050682;28;20892;-38